BIMS weather

Tungubakkar Airport
Tungubakkar, Capital Region, Iceland

Public forecast

Using degrees Celsius for public forecast. Weather courtesy of forecast.io.

Closest aviation weather report (METAR) to Tungubakkar Airport

Closest report is Reykjavik Airport, 6.8 nm (12.6 km) WSW. Retrieved 2019/10/22 14:00 UTC (59 minutes ago):

BIRK 221400Z 01013KT CAVOK 02/M06 Q1010

Closest aviation forecast (TAF) to Tungubakkar Airport

Closest forecast is Reykjavik Airport, 6.8 nm (12.6 km) WSW. Retrieved 2019/10/22 15:24 UTC (0 seconds ago):

TAF BIRK 221322Z 2215/2315 02015KT 9999 FEW040 TX02/2215Z TNM03/2310Z TEMPO 2215/2315 02022G32KT